Time;durP1;ratioP1;P1;durP2;ratioP2;P2;SDS_P1;SDS_P2;PMS_P1;PMS_P2;Temp;Humidity;BMP_temperature;BMP_pressure;BME280_temperature;BME280_humidity;BME280_pressure;Samples;Min_cycle;Max_cycle;Signal;HPM_P1;HPM_P2
2023/10/25 00:00:18;;;;;;;2.17;2.05;;;;;;;;;;5044259;28;20083;-61
2023/10/25 00:02:46;;;;;;;1.98;1.88;;;;;;;;;;5042290;28;20135;-62
2023/10/25 00:05:14;;;;;;;2.00;1.90;;;;;;;;;;5042065;28;20037;-62
2023/10/25 00:07:43;;;;;;;2.17;1.90;;;;;;;;;;5042984;28;20053;-61
2023/10/25 00:10:11;;;;;;;2.08;1.98;;;;;;;;;;5042908;28;20056;-61
2023/10/25 00:12:41;;;;;;;2.22;2.13;;;;;;;;;;5043709;28;20219;-61
2023/10/25 00:15:10;;;;;;;1.95;1.85;;;;;;;;;;5044220;28;20052;-61
2023/10/25 00:17:38;;;;;;;2.10;2.00;;;;;;;;;;5041588;28;20049;-61
2023/10/25 00:20:07;;;;;;;2.10;2.00;;;;;;;;;;5045636;28;20041;-61
2023/10/25 00:22:36;;;;;;;1.98;1.88;;;;;;;;;;5044031;28;20045;-61
2023/10/25 00:25:04;;;;;;;2.28;2.08;;;;;;;;;;5041228;28;20045;-62
2023/10/25 00:27:33;;;;;;;2.85;2.65;;;;;;;;;;5041702;28;20037;-61
2023/10/25 00:30:02;;;;;;;2.47;2.30;;;;;;;;;;5045532;28;20044;-61
2023/10/25 00:32:31;;;;;;;2.33;2.22;;;;;;;;;;5040309;28;20456;-61
2023/10/25 00:35:00;;;;;;;2.20;2.10;;;;;;;;;;5042192;28;20041;-61
2023/10/25 00:37:28;;;;;;;2.00;1.90;;;;;;;;;;5043686;28;20136;-61
2023/10/25 00:39:56;;;;;;;3.17;2.45;;;;;;;;;;5045042;28;20057;-61
2023/10/25 00:42:25;;;;;;;2.22;2.13;;;;;;;;;;5043822;28;20052;-61
2023/10/25 00:44:54;;;;;;;2.40;2.30;;;;;;;;;;5045933;28;20066;-61
2023/10/25 00:47:24;;;;;;;3.03;2.83;;;;;;;;;;5043203;28;20052;-61
2023/10/25 00:49:53;;;;;;;2.58;2.38;;;;;;;;;;5044091;28;20490;-61
2023/10/25 00:52:21;;;;;;;2.28;2.17;;;;;;;;;;5042200;28;20080;-61
2023/10/25 00:54:50;;;;;;;2.67;2.35;;;;;;;;;;5043136;28;20134;-61
2023/10/25 00:57:19;;;;;;;2.33;2.22;;;;;;;;;;5041843;28;20064;-60
2023/10/25 00:59:47;;;;;;;2.40;2.30;;;;;;;;;;5042554;28;20052;-61
2023/10/25 01:02:16;;;;;;;2.20;2.10;;;;;;;;;;5044504;28;20049;-61
2023/10/25 01:04:46;;;;;;;2.40;2.30;;;;;;;;;;5044621;28;20045;-62
2023/10/25 01:07:14;;;;;;;2.40;2.30;;;;;;;;;;5041535;28;20056;-61
2023/10/25 01:09:43;;;;;;;2.20;2.10;;;;;;;;;;5042969;28;20053;-61
2023/10/25 01:12:12;;;;;;;2.47;2.38;;;;;;;;;;5042713;28;20107;-61
2023/10/25 01:14:40;;;;;;;2.20;2.10;;;;;;;;;;5045014;28;20041;-62
2023/10/25 01:17:08;;;;;;;2.42;2.33;;;;;;;;;;5041716;28;20548;-62
2023/10/25 01:19:37;;;;;;;2.13;2.03;;;;;;;;;;5045007;28;20461;-61
2023/10/25 01:22:07;;;;;;;2.13;2.03;;;;;;;;;;5044684;28;20049;-61
2023/10/25 01:24:36;;;;;;;2.17;2.08;;;;;;;;;;5046468;28;20317;-61
2023/10/25 01:27:05;;;;;;;2.00;1.90;;;;;;;;;;5045484;28;20462;-63
2023/10/25 01:29:33;;;;;;;2.08;1.98;;;;;;;;;;5047205;28;20099;-61
2023/10/25 01:32:02;;;;;;;1.88;1.77;;;;;;;;;;5048072;28;20095;-61
2023/10/25 01:34:30;;;;;;;2.10;2.00;;;;;;;;;;5047447;28;20055;-61
2023/10/25 01:36:59;;;;;;;2.30;2.10;;;;;;;;;;5047098;28;20470;-61
2023/10/25 01:39:27;;;;;;;3.20;2.30;;;;;;;;;;5048014;28;20059;-62
2023/10/25 01:41:57;;;;;;;2.00;1.90;;;;;;;;;;5044891;28;20795;-61
2023/10/25 01:44:25;;;;;;;1.90;1.80;;;;;;;;;;5047892;28;20395;-62
2023/10/25 01:46:54;;;;;;;1.95;1.85;;;;;;;;;;5047593;28;20171;-61
2023/10/25 01:49:22;;;;;;;2.20;2.10;;;;;;;;;;5047371;28;20066;-61
2023/10/25 01:51:51;;;;;;;2.10;1.88;;;;;;;;;;5046667;28;20049;-61
2023/10/25 01:54:19;;;;;;;1.80;1.70;;;;;;;;;;5043580;28;20749;-61
2023/10/25 01:56:47;;;;;;;1.90;1.80;;;;;;;;;;5045624;28;20405;-61
2023/10/25 01:59:17;;;;;;;1.90;1.80;;;;;;;;;;5045490;28;20405;-61
2023/10/25 02:01:45;;;;;;;2.38;2.28;;;;;;;;;;5047387;28;20052;-62
2023/10/25 02:04:14;;;;;;;2.83;2.35;;;;;;;;;;5046082;28;20490;-61
2023/10/25 02:06:42;;;;;;;2.17;2.08;;;;;;;;;;5045092;28;20603;-61
2023/10/25 02:09:11;;;;;;;2.38;2.28;;;;;;;;;;5046731;28;20090;-61
2023/10/25 02:11:39;;;;;;;2.28;2.17;;;;;;;;;;5045986;28;20495;-61
2023/10/25 02:14:08;;;;;;;2.13;1.95;;;;;;;;;;5045832;28;20122;-62
2023/10/25 02:16:37;;;;;;;2.17;2.05;;;;;;;;;;5041747;28;20051;-62
2023/10/25 02:19:06;;;;;;;2.42;2.33;;;;;;;;;;5044298;28;20057;-62
2023/10/25 02:21:35;;;;;;;2.22;2.10;;;;;;;;;;5046006;28;20044;-61
2023/10/25 02:24:04;;;;;;;2.50;2.30;;;;;;;;;;5046418;28;20045;-62
2023/10/25 02:26:33;;;;;;;2.22;2.13;;;;;;;;;;5045708;28;20044;-61
2023/10/25 02:29:01;;;;;;;2.40;2.20;;;;;;;;;;5047053;28;20490;-61
2023/10/25 02:31:30;;;;;;;2.13;2.03;;;;;;;;;;5043413;28;20065;-61
2023/10/25 02:33:59;;;;;;;2.30;2.20;;;;;;;;;;5044139;28;20505;-62
2023/10/25 02:36:28;;;;;;;1.90;1.80;;;;;;;;;;5045562;28;20068;-62
2023/10/25 02:38:56;;;;;;;2.10;2.00;;;;;;;;;;5045534;28;20048;-62
2023/10/25 02:41:25;;;;;;;2.55;1.90;;;;;;;;;;5043695;28;20552;-61
2023/10/25 02:43:56;;;;;;;2.45;1.98;;;;;;;;;;5046024;28;20049;-62
2023/10/25 02:46:24;;;;;;;1.90;1.80;;;;;;;;;;5046983;28;20056;-61
2023/10/25 02:48:53;;;;;;;1.80;1.70;;;;;;;;;;5045059;28;20144;-61
2023/10/25 02:51:23;;;;;;;1.98;1.88;;;;;;;;;;5046846;28;20079;-62
2023/10/25 02:53:53;;;;;;;2.03;1.92;;;;;;;;;;5046857;28;20138;-61
2023/10/25 02:56:21;;;;;;;1.95;1.85;;;;;;;;;;5046024;28;20056;-62
2023/10/25 02:58:50;;;;;;;2.17;2.08;;;;;;;;;;5044630;28;20041;-61
2023/10/25 03:01:22;;;;;;;2.22;2.13;;;;;;;;;;5044578;28;20049;-61
2023/10/25 03:03:51;;;;;;;2.00;1.90;;;;;;;;;;5046250;28;20668;-61
2023/10/25 03:06:19;;;;;;;2.20;2.10;;;;;;;;;;5044894;28;20045;-61
2023/10/25 03:08:49;;;;;;;2.10;2.00;;;;;;;;;;5045263;28;20061;-62
2023/10/25 03:11:18;;;;;;;1.98;1.88;;;;;;;;;;5043262;28;20049;-61
2023/10/25 03:13:46;;;;;;;1.80;1.70;;;;;;;;;;5042805;28;20460;-62
2023/10/25 03:16:15;;;;;;;2.05;1.95;;;;;;;;;;5046960;28;20060;-61
2023/10/25 03:18:43;;;;;;;1.90;1.80;;;;;;;;;;5047369;28;20134;-62
2023/10/25 03:21:12;;;;;;;1.83;1.73;;;;;;;;;;5046644;28;20532;-61
2023/10/25 03:23:40;;;;;;;1.90;1.80;;;;;;;;;;5039843;28;20068;-61
2023/10/25 03:26:09;;;;;;;2.08;1.90;;;;;;;;;;5042102;28;20095;-61
2023/10/25 03:28:38;;;;;;;1.73;1.67;;;;;;;;;;5042289;28;20064;-61
2023/10/25 03:31:09;;;;;;;2.10;2.00;;;;;;;;;;5045000;28;20053;-62
2023/10/25 03:33:38;;;;;;;1.70;1.60;;;;;;;;;;5046153;28;20060;-61
2023/10/25 03:36:06;;;;;;;2.00;1.90;;;;;;;;;;5044075;28;20098;-61
2023/10/25 03:38:35;;;;;;;2.03;1.92;;;;;;;;;;5044206;28;20041;-62
2023/10/25 03:41:04;;;;;;;1.90;1.80;;;;;;;;;;5042634;28;20045;-61
2023/10/25 03:43:34;;;;;;;1.90;1.80;;;;;;;;;;5046767;28;20045;-61
2023/10/25 03:46:03;;;;;;;1.90;1.80;;;;;;;;;;5046499;28;20103;-61
2023/10/25 03:48:32;;;;;;;1.92;1.80;;;;;;;;;;5045455;28;20052;-61
2023/10/25 03:51:03;;;;;;;2.10;2.00;;;;;;;;;;5043537;28;20041;-62
2023/10/25 03:53:32;;;;;;;2.03;1.92;;;;;;;;;;5043783;28;20457;-61
2023/10/25 03:56:00;;;;;;;2.00;1.90;;;;;;;;;;5044770;28;20053;-61
2023/10/25 03:58:28;;;;;;;1.90;1.80;;;;;;;;;;5041576;28;20054;-62
2023/10/25 04:01:02;;;;;;;2.20;2.10;;;;;;;;;;5044461;28;20072;-61
2023/10/25 04:03:31;;;;;;;2.13;2.03;;;;;;;;;;5042842;28;20383;-61
2023/10/25 04:05:59;;;;;;;1.95;1.85;;;;;;;;;;5041608;28;20041;-61
2023/10/25 04:08:28;;;;;;;2.00;1.90;;;;;;;;;;5042457;28;20138;-61
2023/10/25 04:10:59;;;;;;;2.20;2.10;;;;;;;;;;5045730;28;20056;-61
2023/10/25 04:13:27;;;;;;;2.55;2.45;;;;;;;;;;5044842;28;20068;-62
2023/10/25 04:15:56;;;;;;;1.85;1.75;;;;;;;;;;5044916;28;20041;-61
2023/10/25 04:18:27;;;;;;;1.90;1.80;;;;;;;;;;5039822;28;20106;-61
2023/10/25 04:20:56;;;;;;;2.13;1.92;;;;;;;;;;5045109;28;20045;-61
2023/10/25 04:23:25;;;;;;;1.92;1.83;;;;;;;;;;5043083;28;20132;-61
2023/10/25 04:25:54;;;;;;;1.90;1.80;;;;;;;;;;5043377;28;20049;-61
2023/10/25 04:28:22;;;;;;;1.90;1.80;;;;;;;;;;5042154;28;20075;-61
2023/10/25 04:30:50;;;;;;;1.85;1.75;;;;;;;;;;5041637;28;20052;-61
2023/10/25 04:33:19;;;;;;;1.95;1.85;;;;;;;;;;5045769;28;20446;-61
2023/10/25 04:35:49;;;;;;;2.42;2.22;;;;;;;;;;5037864;28;20090;-61
2023/10/25 04:38:19;;;;;;;1.80;1.70;;;;;;;;;;5042224;28;21358;-61
2023/10/25 04:40:48;;;;;;;1.90;1.80;;;;;;;;;;5041881;28;20123;-61
2023/10/25 04:43:17;;;;;;;2.22;2.08;;;;;;;;;;5043693;28;20080;-61
2023/10/25 04:45:45;;;;;;;2.00;1.83;;;;;;;;;;5046182;28;20050;-62
2023/10/25 04:48:14;;;;;;;1.90;1.80;;;;;;;;;;5041709;28;20071;-61
2023/10/25 04:50:42;;;;;;;1.50;1.50;;;;;;;;;;5039589;28;20410;-61
2023/10/25 04:53:12;;;;;;;1.73;1.63;;;;;;;;;;5039182;28;20616;-61
2023/10/25 04:55:45;;;;;;;1.95;1.85;;;;;;;;;;5039496;28;20469;-61
2023/10/25 04:58:14;;;;;;;1.90;1.80;;;;;;;;;;5039749;28;20099;-62
2023/10/25 05:00:42;;;;;;;2.00;1.90;;;;;;;;;;5042000;28;20091;-61
2023/10/25 05:03:11;;;;;;;1.80;1.70;;;;;;;;;;5042754;28;20045;-61
2023/10/25 05:05:40;;;;;;;1.90;1.80;;;;;;;;;;5032439;28;20044;-61
2023/10/25 05:08:09;;;;;;;1.80;1.70;;;;;;;;;;5037678;28;20401;-61
2023/10/25 05:10:40;;;;;;;2.00;1.83;;;;;;;;;;5039833;28;20056;-61
2023/10/25 05:13:08;;;;;;;1.98;1.88;;;;;;;;;;5041352;28;20060;-62
2023/10/25 05:15:37;;;;;;;2.95;1.98;;;;;;;;;;5042292;28;20049;-62
2023/10/25 05:18:05;;;;;;;1.77;1.70;;;;;;;;;;5043623;28;20072;-61
2023/10/25 05:20:34;;;;;;;1.70;1.60;;;;;;;;;;5043577;28;20041;-61
2023/10/25 05:23:04;;;;;;;2.17;1.92;;;;;;;;;;5042311;28;20044;-62
2023/10/25 05:25:33;;;;;;;2.03;1.92;;;;;;;;;;5041338;28;20146;-61
2023/10/25 05:28:03;;;;;;;1.65;1.60;;;;;;;;;;5040741;28;20111;-61
2023/10/25 05:30:32;;;;;;;3.67;2.25;;;;;;;;;;5042433;28;20379;-61
2023/10/25 05:33:02;;;;;;;2.85;1.80;;;;;;;;;;5044634;28;20139;-62
2023/10/25 05:35:30;;;;;;;1.80;1.70;;;;;;;;;;5044063;28;20126;-62
2023/10/25 05:37:59;;;;;;;1.80;1.70;;;;;;;;;;5042879;28;20053;-62
2023/10/25 05:40:28;;;;;;;2.03;1.92;;;;;;;;;;5039995;28;20060;-61
2023/10/25 05:42:57;;;;;;;1.90;1.80;;;;;;;;;;5042143;28;20056;-61
2023/10/25 05:45:27;;;;;;;1.90;1.80;;;;;;;;;;5040223;28;20041;-62
2023/10/25 05:47:56;;;;;;;1.90;1.80;;;;;;;;;;5043663;28;20208;-61
2023/10/25 05:50:25;;;;;;;1.90;1.80;;;;;;;;;;5040583;28;20060;-62
2023/10/25 05:52:53;;;;;;;4.40;1.98;;;;;;;;;;5044380;28;20080;-61
2023/10/25 05:55:22;;;;;;;1.98;1.88;;;;;;;;;;5040468;28;20050;-61
2023/10/25 05:57:50;;;;;;;1.90;1.80;;;;;;;;;;5038793;28;20094;-61
2023/10/25 06:00:19;;;;;;;2.22;2.13;;;;;;;;;;5040072;28;20056;-61
2023/10/25 06:02:50;;;;;;;2.03;1.92;;;;;;;;;;5043322;28;20635;-60
2023/10/25 06:05:19;;;;;;;2.28;1.73;;;;;;;;;;5045278;28;20652;-61
2023/10/25 06:07:48;;;;;;;2.00;1.90;;;;;;;;;;5045802;28;20099;-61
2023/10/25 06:10:17;;;;;;;1.67;1.60;;;;;;;;;;5044766;28;20114;-60
2023/10/25 06:12:46;;;;;;;1.77;1.67;;;;;;;;;;5044806;28;20087;-61
2023/10/25 06:15:14;;;;;;;2.00;1.90;;;;;;;;;;5047994;28;20541;-61
2023/10/25 06:17:43;;;;;;;1.70;1.60;;;;;;;;;;5046080;28;20077;-61
2023/10/25 06:20:19;;;;;;;1.98;1.88;;;;;;;;;;5047697;28;20041;-61
2023/10/25 06:22:48;;;;;;;3.45;2.00;;;;;;;;;;5046837;28;20044;-61
2023/10/25 06:25:16;;;;;;;2.10;2.00;;;;;;;;;;5044136;28;20049;-61
2023/10/25 06:27:45;;;;;;;1.83;1.73;;;;;;;;;;5045890;28;20050;-61
2023/10/25 06:30:13;;;;;;;2.00;1.90;;;;;;;;;;5047676;28;20044;-61
2023/10/25 06:32:42;;;;;;;2.08;1.98;;;;;;;;;;5046902;28;20680;-61
2023/10/25 06:35:10;;;;;;;2.97;1.90;;;;;;;;;;5046936;28;20041;-60
2023/10/25 06:37:41;;;;;;;1.80;1.70;;;;;;;;;;5044825;28;20494;-61
2023/10/25 06:40:09;;;;;;;6.82;1.88;;;;;;;;;;5047060;28;20083;-61
2023/10/25 06:42:38;;;;;;;2.10;2.00;;;;;;;;;;5048204;28;20051;-61
2023/10/25 06:45:08;;;;;;;1.77;1.67;;;;;;;;;;5046980;28;20557;-61
2023/10/25 06:47:37;;;;;;;2.00;1.90;;;;;;;;;;5045413;28;20051;-61
2023/10/25 06:50:06;;;;;;;2.00;1.90;;;;;;;;;;5046123;28;20124;-61
2023/10/25 06:52:34;;;;;;;1.90;1.80;;;;;;;;;;5047578;28;20087;-61
2023/10/25 06:55:05;;;;;;;2.17;2.08;;;;;;;;;;5046332;28;20060;-61
2023/10/25 06:57:35;;;;;;;2.00;1.90;;;;;;;;;;5042500;28;20067;-62
2023/10/25 07:00:06;;;;;;;1.90;1.80;;;;;;;;;;5043501;28;20048;-61
2023/10/25 07:02:38;;;;;;;1.90;1.80;;;;;;;;;;5044578;28;20463;-62
2023/10/25 07:05:11;;;;;;;2.00;1.90;;;;;;;;;;5039556;28;20036;-61
2023/10/25 07:07:40;;;;;;;1.90;1.80;;;;;;;;;;5041912;28;20048;-61
2023/10/25 07:10:11;;;;;;;1.95;1.85;;;;;;;;;;5045261;28;20045;-61
2023/10/25 07:12:39;;;;;;;2.20;2.10;;;;;;;;;;5036969;28;20155;-61
2023/10/25 07:15:09;;;;;;;2.10;2.00;;;;;;;;;;5043917;28;20091;-61
2023/10/25 07:17:37;;;;;;;2.20;2.00;;;;;;;;;;5045032;28;20075;-61
2023/10/25 07:20:07;;;;;;;2.10;2.00;;;;;;;;;;5043531;28;20061;-61
2023/10/25 07:22:35;;;;;;;3.45;2.17;;;;;;;;;;5046621;28;20040;-60
2023/10/25 07:25:04;;;;;;;2.00;1.90;;;;;;;;;;5041763;28;20045;-61
2023/10/25 07:27:34;;;;;;;2.00;1.90;;;;;;;;;;5043914;28;20383;-61
2023/10/25 07:30:03;;;;;;;2.20;2.10;;;;;;;;;;5046212;28;20041;-61
2023/10/25 07:32:32;;;;;;;2.05;1.95;;;;;;;;;;5041540;28;20088;-61
2023/10/25 07:35:00;;;;;;;2.15;2.05;;;;;;;;;;5046323;28;20132;-61
2023/10/25 07:37:29;;;;;;;2.25;2.05;;;;;;;;;;5045081;28;20084;-60
2023/10/25 07:39:57;;;;;;;2.80;2.40;;;;;;;;;;5041807;28;20053;-61
2023/10/25 07:42:26;;;;;;;2.42;2.22;;;;;;;;;;5043935;28;20115;-61
2023/10/25 07:44:57;;;;;;;2.30;2.20;;;;;;;;;;5039228;28;20110;-61
2023/10/25 07:47:25;;;;;;;2.20;2.10;;;;;;;;;;5042878;28;20106;-60
2023/10/25 07:49:54;;;;;;;2.05;1.95;;;;;;;;;;5042942;28;20051;-60
2023/10/25 07:52:25;;;;;;;2.20;2.10;;;;;;;;;;5043379;28;20056;-61
2023/10/25 07:54:53;;;;;;;2.08;1.98;;;;;;;;;;5042048;28;20045;-61
2023/10/25 07:57:22;;;;;;;2.35;2.25;;;;;;;;;;5041874;28;20045;-61
2023/10/25 07:59:53;;;;;;;2.17;2.08;;;;;;;;;;5040932;28;20072;-61
2023/10/25 08:02:23;;;;;;;2.00;1.90;;;;;;;;;;5044782;28;20410;-61
2023/10/25 08:04:52;;;;;;;2.50;2.30;;;;;;;;;;5045004;28;20057;-61
2023/10/25 08:07:20;;;;;;;2.58;2.38;;;;;;;;;;5043661;28;20322;-61
2023/10/25 08:09:49;;;;;;;2.45;2.35;;;;;;;;;;5042571;28;20387;-61
2023/10/25 08:12:17;;;;;;;2.40;2.30;;;;;;;;;;5045967;28;20053;-61
2023/10/25 08:14:45;;;;;;;2.65;2.55;;;;;;;;;;5041513;28;20077;-61
2023/10/25 08:17:14;;;;;;;2.30;2.20;;;;;;;;;;5043135;28;20045;-61
2023/10/25 08:19:43;;;;;;;2.65;2.45;;;;;;;;;;5045312;28;20037;-61
2023/10/25 08:22:12;;;;;;;2.25;2.15;;;;;;;;;;5044549;28;20517;-61
2023/10/25 08:24:40;;;;;;;2.75;2.55;;;;;;;;;;5043093;28;20052;-61
2023/10/25 08:27:09;;;;;;;2.20;2.10;;;;;;;;;;5045215;28;20175;-61
2023/10/25 08:29:37;;;;;;;2.22;2.13;;;;;;;;;;5041758;28;20045;-61
2023/10/25 08:32:06;;;;;;;2.47;2.30;;;;;;;;;;5045766;28;20072;-61
2023/10/25 08:34:35;;;;;;;1.92;1.83;;;;;;;;;;5038976;28;20049;-61
2023/10/25 08:37:05;;;;;;;2.28;2.17;;;;;;;;;;5043757;28;20060;-61
2023/10/25 08:39:33;;;;;;;1.98;1.80;;;;;;;;;;5043514;28;20508;-62
2023/10/25 08:42:02;;;;;;;2.00;1.90;;;;;;;;;;5044668;28;20071;-62
2023/10/25 08:44:32;;;;;;;1.88;1.77;;;;;;;;;;5043132;28;20053;-61
2023/10/25 08:47:01;;;;;;;1.80;1.70;;;;;;;;;;5041277;28;20083;-62
2023/10/25 08:49:29;;;;;;;1.83;1.73;;;;;;;;;;5042713;28;20041;-62
2023/10/25 08:51:57;;;;;;;1.90;1.80;;;;;;;;;;5040761;28;20049;-62
2023/10/25 08:54:28;;;;;;;1.60;1.60;;;;;;;;;;5037706;28;20053;-62
2023/10/25 08:56:57;;;;;;;1.80;1.70;;;;;;;;;;5044680;28;20057;-62
2023/10/25 08:59:25;;;;;;;1.90;1.80;;;;;;;;;;5041062;28;20048;-62
2023/10/25 09:01:54;;;;;;;1.60;1.50;;;;;;;;;;5042203;28;20162;-62
2023/10/25 09:04:22;;;;;;;1.60;1.50;;;;;;;;;;5044903;28;20049;-62
2023/10/25 09:06:51;;;;;;;1.70;1.60;;;;;;;;;;5041809;28;20052;-63
2023/10/25 09:09:19;;;;;;;1.30;1.30;;;;;;;;;;5041252;28;20655;-62
2023/10/25 09:11:49;;;;;;;1.40;1.40;;;;;;;;;;5040752;28;20076;-62
2023/10/25 09:14:18;;;;;;;1.30;1.30;;;;;;;;;;5039289;28;20053;-62
2023/10/25 09:16:47;;;;;;;1.45;1.45;;;;;;;;;;5040374;28;20770;-62
2023/10/25 09:19:20;;;;;;;1.40;1.40;;;;;;;;;;5041501;28;20044;-62
2023/10/25 09:21:49;;;;;;;1.27;1.27;;;;;;;;;;5039484;28;20649;-62
2023/10/25 09:24:18;;;;;;;1.40;1.40;;;;;;;;;;5043009;28;20367;-62
2023/10/25 09:26:46;;;;;;;1.40;1.30;;;;;;;;;;5043048;28;20065;-63
2023/10/25 09:29:25;;;;;;;1.65;1.55;;;;;;;;;;5041912;28;20132;-62
2023/10/25 09:32:06;;;;;;;1.52;1.42;;;;;;;;;;5042221;28;20069;-62
2023/10/25 09:34:35;;;;;;;3.00;2.15;;;;;;;;;;5037805;28;20452;-62
2023/10/25 09:37:04;;;;;;;1.50;1.40;;;;;;;;;;5038547;28;20045;-62
2023/10/25 09:39:35;;;;;;;1.33;1.33;;;;;;;;;;5042112;28;20087;-62
2023/10/25 09:42:04;;;;;;;1.33;1.33;;;;;;;;;;5046347;28;20045;-62
2023/10/25 09:44:37;;;;;;;1.40;1.40;;;;;;;;;;5045794;28;20040;-63
2023/10/25 09:47:06;;;;;;;1.55;1.45;;;;;;;;;;5046351;28;20045;-63
2023/10/25 09:49:35;;;;;;;1.40;1.40;;;;;;;;;;5045451;28;20057;-64
2023/10/25 09:52:07;;;;;;;1.50;1.50;;;;;;;;;;5043073;28;20092;-63
2023/10/25 09:54:36;;;;;;;1.83;1.50;;;;;;;;;;5043389;28;20048;-63
2023/10/25 09:57:05;;;;;;;1.45;1.35;;;;;;;;;;5045164;28;20110;-62
2023/10/25 09:59:35;;;;;;;1.40;1.30;;;;;;;;;;5046788;28;20397;-63
2023/10/25 10:02:07;;;;;;;1.40;1.40;;;;;;;;;;5045380;28;20052;-62
2023/10/25 10:04:41;;;;;;;1.48;1.48;;;;;;;;;;5044435;28;20068;-62
2023/10/25 10:07:14;;;;;;;1.40;1.40;;;;;;;;;;5044395;28;20516;-61
2023/10/25 10:09:47;;;;;;;1.40;1.40;;;;;;;;;;5046947;28;20080;-64
2023/10/25 10:12:16;;;;;;;1.40;1.40;;;;;;;;;;5046366;28;20076;-61
2023/10/25 10:14:46;;;;;;;1.30;1.30;;;;;;;;;;5046749;28;20045;-63
2023/10/25 10:17:16;;;;;;;1.30;1.30;;;;;;;;;;5044960;28;20057;-61
2023/10/25 10:19:45;;;;;;;1.30;1.30;;;;;;;;;;5046606;28;20045;-60
2023/10/25 10:22:14;;;;;;;1.38;1.30;;;;;;;;;;5045320;28;20107;-61
2023/10/25 10:24:43;;;;;;;1.73;1.30;;;;;;;;;;5045645;28;20053;-60
2023/10/25 10:27:12;;;;;;;1.20;1.20;;;;;;;;;;5043008;28;20053;-62
2023/10/25 10:29:41;;;;;;;1.27;1.27;;;;;;;;;;5044300;28;20052;-60
2023/10/25 10:32:11;;;;;;;1.30;1.30;;;;;;;;;;5047441;28;20045;-61
2023/10/25 10:34:44;;;;;;;1.30;1.30;;;;;;;;;;5044096;28;20053;-59
2023/10/25 10:37:13;;;;;;;1.20;1.20;;;;;;;;;;5045030;28;20076;-59
2023/10/25 10:39:59;;;;;;;1.30;1.30;;;;;;;;;;5046958;28;20081;-59
2023/10/25 10:42:33;;;;;;;1.30;1.30;;;;;;;;;;5036553;28;20742;-64
2023/10/25 10:45:02;;;;;;;1.20;1.20;;;;;;;;;;5046283;28;20502;-59
2023/10/25 10:47:36;;;;;;;1.20;1.20;;;;;;;;;;5042498;28;20041;-60
2023/10/25 10:50:09;;;;;;;1.20;1.20;;;;;;;;;;5044080;28;20044;-60
2023/10/25 10:52:37;;;;;;;1.30;1.30;;;;;;;;;;5045865;28;20072;-61
2023/10/25 10:55:07;;;;;;;1.30;1.30;;;;;;;;;;5045682;28;20052;-59
2023/10/25 10:57:36;;;;;;;1.30;1.30;;;;;;;;;;5044689;28;20049;-60
2023/10/25 11:00:08;;;;;;;1.38;1.38;;;;;;;;;;5044393;28;20048;-59
2023/10/25 11:02:38;;;;;;;1.30;1.30;;;;;;;;;;5046464;28;20078;-59
2023/10/25 11:05:07;;;;;;;1.30;1.30;;;;;;;;;;5042262;28;20048;-61
2023/10/25 11:07:35;;;;;;;1.35;1.35;;;;;;;;;;5044092;28;20052;-61
2023/10/25 11:10:04;;;;;;;1.30;1.30;;;;;;;;;;5043757;28;20095;-60
2023/10/25 11:12:33;;;;;;;1.30;1.30;;;;;;;;;;5041189;28;20501;-60
2023/10/25 11:15:03;;;;;;;1.30;1.30;;;;;;;;;;5042881;28;20099;-60
2023/10/25 11:17:32;;;;;;;1.30;1.30;;;;;;;;;;5042475;28;20053;-62
2023/10/25 11:20:02;;;;;;;1.50;1.50;;;;;;;;;;5040204;28;20041;-64
2023/10/25 11:22:36;;;;;;;1.33;1.33;;;;;;;;;;5042620;28;20143;-60
2023/10/25 11:25:08;;;;;;;1.50;1.40;;;;;;;;;;5042625;28;20053;-61
2023/10/25 11:27:37;;;;;;;1.40;1.30;;;;;;;;;;5043707;28;20480;-61
2023/10/25 11:30:06;;;;;;;1.10;1.10;;;;;;;;;;5044651;28;20548;-62
2023/10/25 11:32:35;;;;;;;1.30;1.30;;;;;;;;;;5042005;28;20091;-61
2023/10/25 11:35:07;;;;;;;1.50;1.50;;;;;;;;;;5043973;28;20143;-61
2023/10/25 11:37:42;;;;;;;1.90;1.80;;;;;;;;;;5039648;28;20045;-61
2023/10/25 11:40:11;;;;;;;2.10;2.00;;;;;;;;;;5044844;28;20052;-61
2023/10/25 11:42:39;;;;;;;1.95;1.85;;;;;;;;;;5029016;28;20169;-61
2023/10/25 11:45:08;;;;;;;2.30;2.20;;;;;;;;;;5042823;28;20128;-62
2023/10/25 11:47:37;;;;;;;2.05;1.95;;;;;;;;;;5044213;28;20044;-61
2023/10/25 11:50:09;;;;;;;2.03;1.92;;;;;;;;;;5042934;28;20056;-61
2023/10/25 11:52:37;;;;;;;1.88;1.80;;;;;;;;;;5041321;28;20132;-61
2023/10/25 11:55:06;;;;;;;2.00;1.90;;;;;;;;;;5044141;28;20110;-61
2023/10/25 11:57:38;;;;;;;1.50;1.50;;;;;;;;;;5040129;28;20052;-61
2023/10/25 12:00:08;;;;;;;1.60;1.60;;;;;;;;;;5043964;28;20044;-62
2023/10/25 12:02:37;;;;;;;1.80;1.70;;;;;;;;;;5039092;28;20075;-62
2023/10/25 12:05:07;;;;;;;1.50;1.50;;;;;;;;;;5039073;28;20044;-61
2023/10/25 12:07:36;;;;;;;1.30;1.30;;;;;;;;;;5039118;28;20048;-63
2023/10/25 12:10:05;;;;;;;1.30;1.30;;;;;;;;;;5037107;28;20106;-62
2023/10/25 12:12:34;;;;;;;1.40;1.40;;;;;;;;;;5041164;28;20045;-63
2023/10/25 12:15:02;;;;;;;1.30;1.30;;;;;;;;;;5040556;28;20053;-62
2023/10/25 12:17:31;;;;;;;1.20;1.20;;;;;;;;;;5040110;28;20068;-62
2023/10/25 12:19:59;;;;;;;1.30;1.30;;;;;;;;;;5044154;28;20076;-62
2023/10/25 12:22:47;;;;;;;1.38;1.27;;;;;;;;;;5040614;28;20045;-63
2023/10/25 12:25:16;;;;;;;1.20;1.20;;;;;;;;;;5037034;28;21050;-63
2023/10/25 12:27:44;;;;;;;1.10;1.10;;;;;;;;;;5039673;28;20443;-62
2023/10/25 12:30:13;;;;;;;1.35;1.35;;;;;;;;;;5040448;28;20102;-62
2023/10/25 12:32:41;;;;;;;1.42;1.33;;;;;;;;;;5041333;28;20111;-62
2023/10/25 12:35:10;;;;;;;1.27;1.20;;;;;;;;;;5041640;28;20055;-62
2023/10/25 12:37:38;;;;;;;1.20;1.20;;;;;;;;;;5040318;28;20498;-62
2023/10/25 12:40:09;;;;;;;2.10;1.38;;;;;;;;;;5042367;28;20560;-62
2023/10/25 12:42:39;;;;;;;1.30;1.30;;;;;;;;;;5039893;28;20091;-62
2023/10/25 12:45:08;;;;;;;2.28;1.52;;;;;;;;;;5041962;28;20045;-62
2023/10/25 12:47:37;;;;;;;1.67;1.67;;;;;;;;;;5036472;28;20055;-62
2023/10/25 12:50:06;;;;;;;1.40;1.40;;;;;;;;;;5039480;28;20041;-63
2023/10/25 12:52:35;;;;;;;1.50;1.50;;;;;;;;;;5038436;28;20494;-61
2023/10/25 12:55:04;;;;;;;1.67;1.67;;;;;;;;;;5042178;28;20099;-64
2023/10/25 12:57:34;;;;;;;1.63;1.52;;;;;;;;;;5037575;28;20048;-63
2023/10/25 13:00:02;;;;;;;1.58;1.50;;;;;;;;;;5039049;28;20048;-61
2023/10/25 13:02:31;;;;;;;1.50;1.40;;;;;;;;;;5042644;28;20098;-62
2023/10/25 13:05:00;;;;;;;1.20;1.20;;;;;;;;;;5043731;28;20037;-62
2023/10/25 13:07:28;;;;;;;1.20;1.20;;;;;;;;;;5043657;28;20501;-62
2023/10/25 13:09:57;;;;;;;1.30;1.30;;;;;;;;;;5043576;28;20448;-63
2023/10/25 13:12:25;;;;;;;1.15;1.15;;;;;;;;;;5041496;28;20569;-62
2023/10/25 13:14:55;;;;;;;1.20;1.20;;;;;;;;;;5040294;28;20102;-63
2023/10/25 13:17:24;;;;;;;2.15;1.17;;;;;;;;;;5043070;28;20078;-63
2023/10/25 13:19:53;;;;;;;1.20;1.20;;;;;;;;;;5041138;28;20135;-62
2023/10/25 13:22:21;;;;;;;1.33;1.30;;;;;;;;;;5039505;28;20045;-63
2023/10/25 13:24:51;;;;;;;1.10;1.10;;;;;;;;;;5042112;28;20049;-63
2023/10/25 13:27:20;;;;;;;1.30;1.20;;;;;;;;;;5041901;28;20052;-62
2023/10/25 13:29:49;;;;;;;1.10;1.10;;;;;;;;;;5041677;28;20055;-62
2023/10/25 13:32:19;;;;;;;1.45;1.30;;;;;;;;;;5041853;28;20120;-62
2023/10/25 13:34:47;;;;;;;1.65;1.50;;;;;;;;;;5042539;28;20154;-62
2023/10/25 13:37:15;;;;;;;1.48;1.40;;;;;;;;;;5041636;28;20056;-63
2023/10/25 13:39:44;;;;;;;1.60;1.50;;;;;;;;;;5037980;28;20118;-62
2023/10/25 13:42:13;;;;;;;2.38;1.90;;;;;;;;;;5040508;28;20053;-63
2023/10/25 13:44:41;;;;;;;1.90;1.80;;;;;;;;;;5041358;28;20141;-62
2023/10/25 13:47:10;;;;;;;1.50;1.50;;;;;;;;;;5039525;28;20041;-63
2023/10/25 13:49:40;;;;;;;1.30;1.30;;;;;;;;;;5043455;28;20051;-63
2023/10/25 13:52:09;;;;;;;1.50;1.40;;;;;;;;;;5041286;28;20778;-62
2023/10/25 13:54:38;;;;;;;1.30;1.30;;;;;;;;;;5041483;28;20049;-62
2023/10/25 13:57:06;;;;;;;1.40;1.30;;;;;;;;;;5035783;28;20494;-63
2023/10/25 13:59:35;;;;;;;1.35;1.35;;;;;;;;;;5040559;28;20053;-63
2023/10/25 14:02:04;;;;;;;1.20;1.20;;;;;;;;;;5040800;28;20048;-63
2023/10/25 14:04:32;;;;;;;1.10;1.10;;;;;;;;;;5041957;28;20478;-62
2023/10/25 14:07:03;;;;;;;1.60;1.30;;;;;;;;;;5042459;28;20474;-62
2023/10/25 14:09:32;;;;;;;1.33;1.33;;;;;;;;;;5040310;28;20440;-63
2023/10/25 14:12:02;;;;;;;1.48;1.48;;;;;;;;;;5040244;28;20577;-63
2023/10/25 14:14:31;;;;;;;2.03;1.25;;;;;;;;;;5035521;28;20073;-63
2023/10/25 14:16:59;;;;;;;1.20;1.20;;;;;;;;;;5041308;28;20041;-63
2023/10/25 14:19:27;;;;;;;1.30;1.30;;;;;;;;;;5041225;28;20084;-62
2023/10/25 14:21:56;;;;;;;1.83;1.73;;;;;;;;;;5040960;28;20049;-62
2023/10/25 14:24:26;;;;;;;1.75;1.60;;;;;;;;;;5038321;28;20068;-62
2023/10/25 14:27:04;;;;;;;1.40;1.40;;;;;;;;;;5041719;28;20045;-63
2023/10/25 14:29:33;;;;;;;1.60;1.50;;;;;;;;;;5042218;28;20061;-62
2023/10/25 14:32:01;;;;;;;1.63;1.63;;;;;;;;;;5043622;28;20053;-62
2023/10/25 14:34:31;;;;;;;1.75;1.75;;;;;;;;;;5044823;28;20569;-62
2023/10/25 14:36:59;;;;;;;1.90;1.80;;;;;;;;;;5041662;28;20478;-62
2023/10/25 14:39:29;;;;;;;2.00;1.90;;;;;;;;;;5045651;28;20110;-62
2023/10/25 14:41:57;;;;;;;1.90;1.80;;;;;;;;;;5047278;28;20041;-63
2023/10/25 14:44:26;;;;;;;2.05;1.95;;;;;;;;;;5045402;28;20135;-63
2023/10/25 14:46:54;;;;;;;2.22;2.13;;;;;;;;;;5045850;28;20057;-63
2023/10/25 14:49:23;;;;;;;2.30;1.98;;;;;;;;;;5044012;28;20129;-62
2023/10/25 14:51:51;;;;;;;2.10;2.00;;;;;;;;;;5042981;28;20052;-63
2023/10/25 14:54:20;;;;;;;2.22;2.00;;;;;;;;;;5043351;28;20467;-62